sensor_id;sensor_type;location;lat;lon;timestamp;P1;durP1;ratioP1;P2;durP2;ratioP2
73571;SDS011;61854;48.510;-2.770;2023-09-19T00:02:56;12.93;;;2.05;;
73571;SDS011;61854;48.510;-2.770;2023-09-19T00:05:24;11.27;;;2.00;;
73571;SDS011;61854;48.510;-2.770;2023-09-19T00:07:53;16.48;;;1.88;;
73571;SDS011;61854;48.510;-2.770;2023-09-19T00:10:20;13.38;;;1.88;;
73571;SDS011;61854;48.510;-2.770;2023-09-19T00:12:50;13.20;;;2.28;;
73571;SDS011;61854;48.510;-2.770;2023-09-19T00:15:26;13.75;;;2.13;;
73571;SDS011;61854;48.510;-2.770;2023-09-19T00:17:54;14.25;;;2.05;;
73571;SDS011;61854;48.510;-2.770;2023-09-19T00:20:20;12.85;;;1.83;;
73571;SDS011;61854;48.510;-2.770;2023-09-19T00:22:48;14.60;;;2.00;;
73571;SDS011;61854;48.510;-2.770;2023-09-19T00:25:18;13.63;;;2.00;;
73571;SDS011;61854;48.510;-2.770;2023-09-19T00:27:45;12.93;;;2.47;;
73571;SDS011;61854;48.510;-2.770;2023-09-19T00:30:16;17.70;;;1.92;;
73571;SDS011;61854;48.510;-2.770;2023-09-19T00:32:46;9.23;;;1.70;;
73571;SDS011;61854;48.510;-2.770;2023-09-19T00:35:13;11.73;;;1.83;;
73571;SDS011;61854;48.510;-2.770;2023-09-19T00:37:40;12.40;;;2.47;;
73571;SDS011;61854;48.510;-2.770;2023-09-19T00:40:07;12.30;;;1.75;;
73571;SDS011;61854;48.510;-2.770;2023-09-19T00:42:40;15.18;;;2.35;;
73571;SDS011;61854;48.510;-2.770;2023-09-19T00:45:08;13.90;;;2.30;;
73571;SDS011;61854;48.510;-2.770;2023-09-19T00:47:43;14.02;;;2.25;;
73571;SDS011;61854;48.510;-2.770;2023-09-19T00:50:14;12.70;;;2.15;;
73571;SDS011;61854;48.510;-2.770;2023-09-19T00:52:42;11.15;;;2.20;;
73571;SDS011;61854;48.510;-2.770;2023-09-19T00:55:09;12.70;;;1.88;;
73571;SDS011;61854;48.510;-2.770;2023-09-19T00:57:36;10.67;;;2.13;;
73571;SDS011;61854;48.510;-2.770;2023-09-19T01:00:03;16.58;;;2.03;;
73571;SDS011;61854;48.510;-2.770;2023-09-19T01:04:58;17.13;;;2.58;;
73571;SDS011;61854;48.510;-2.770;2023-09-19T01:07:25;13.00;;;2.00;;
73571;SDS011;61854;48.510;-2.770;2023-09-19T01:09:51;10.48;;;1.60;;
73571;SDS011;61854;48.510;-2.770;2023-09-19T01:12:20;16.10;;;2.33;;
73571;SDS011;61854;48.510;-2.770;2023-09-19T01:14:55;12.82;;;2.60;;
73571;SDS011;61854;48.510;-2.770;2023-09-19T01:17:30;8.98;;;1.65;;
73571;SDS011;61854;48.510;-2.770;2023-09-19T01:20:15;15.15;;;2.40;;
73571;SDS011;61854;48.510;-2.770;2023-09-19T01:25:33;10.32;;;1.98;;
73571;SDS011;61854;48.510;-2.770;2023-09-19T01:33:28;9.05;;;1.60;;
73571;SDS011;61854;48.510;-2.770;2023-09-19T01:36:16;13.52;;;2.08;;
73571;SDS011;61854;48.510;-2.770;2023-09-19T01:38:42;13.45;;;2.13;;
73571;SDS011;61854;48.510;-2.770;2023-09-19T01:41:09;12.80;;;1.95;;
73571;SDS011;61854;48.510;-2.770;2023-09-19T01:43:41;11.10;;;2.13;;
73571;SDS011;61854;48.510;-2.770;2023-09-19T01:49:07;14.30;;;1.98;;
73571;SDS011;61854;48.510;-2.770;2023-09-19T01:51:56;14.32;;;2.20;;
73571;SDS011;61854;48.510;-2.770;2023-09-19T01:54:36;11.90;;;2.30;;
73571;SDS011;61854;48.510;-2.770;2023-09-19T02:00:03;18.20;;;2.88;;
73571;SDS011;61854;48.510;-2.770;2023-09-19T02:02:38;18.73;;;2.55;;
73571;SDS011;61854;48.510;-2.770;2023-09-19T02:05:07;15.35;;;2.47;;
73571;SDS011;61854;48.510;-2.770;2023-09-19T02:07:33;13.20;;;2.33;;
73571;SDS011;61854;48.510;-2.770;2023-09-19T02:09:59;12.52;;;2.40;;
73571;SDS011;61854;48.510;-2.770;2023-09-19T02:12:31;9.65;;;1.65;;
73571;SDS011;61854;48.510;-2.770;2023-09-19T02:15:00;11.00;;;2.15;;
73571;SDS011;61854;48.510;-2.770;2023-09-19T02:17:26;9.63;;;1.70;;
73571;SDS011;61854;48.510;-2.770;2023-09-19T02:19:52;13.23;;;2.38;;
73571;SDS011;61854;48.510;-2.770;2023-09-19T02:22:19;13.82;;;2.38;;
73571;SDS011;61854;48.510;-2.770;2023-09-19T02:24:45;10.20;;;1.90;;
73571;SDS011;61854;48.510;-2.770;2023-09-19T02:27:13;12.55;;;2.25;;
73571;SDS011;61854;48.510;-2.770;2023-09-19T02:29:41;13.15;;;2.03;;
73571;SDS011;61854;48.510;-2.770;2023-09-19T02:32:06;14.73;;;2.20;;
73571;SDS011;61854;48.510;-2.770;2023-09-19T02:34:34;13.47;;;2.50;;
73571;SDS011;61854;48.510;-2.770;2023-09-19T02:37:02;16.38;;;2.58;;
73571;SDS011;61854;48.510;-2.770;2023-09-19T02:39:30;12.68;;;2.00;;
73571;SDS011;61854;48.510;-2.770;2023-09-19T02:41:56;10.98;;;1.67;;
73571;SDS011;61854;48.510;-2.770;2023-09-19T02:44:22;13.63;;;2.13;;
73571;SDS011;61854;48.510;-2.770;2023-09-19T02:46:48;14.48;;;2.88;;
73571;SDS011;61854;48.510;-2.770;2023-09-19T02:49:14;9.05;;;1.88;;
73571;SDS011;61854;48.510;-2.770;2023-09-19T02:51:40;13.90;;;2.55;;
73571;SDS011;61854;48.510;-2.770;2023-09-19T02:54:06;16.05;;;2.40;;
73571;SDS011;61854;48.510;-2.770;2023-09-19T02:56:32;19.95;;;2.55;;
73571;SDS011;61854;48.510;-2.770;2023-09-19T02:58:58;12.70;;;2.00;;
73571;SDS011;61854;48.510;-2.770;2023-09-19T03:01:25;13.82;;;2.45;;
73571;SDS011;61854;48.510;-2.770;2023-09-19T03:03:52;12.23;;;2.00;;
73571;SDS011;61854;48.510;-2.770;2023-09-19T03:06:18;14.20;;;2.17;;
73571;SDS011;61854;48.510;-2.770;2023-09-19T03:08:45;15.95;;;2.47;;
73571;SDS011;61854;48.510;-2.770;2023-09-19T03:11:11;15.38;;;2.28;;
73571;SDS011;61854;48.510;-2.770;2023-09-19T03:13:39;13.80;;;2.28;;
73571;SDS011;61854;48.510;-2.770;2023-09-19T03:16:07;19.05;;;2.42;;
73571;SDS011;61854;48.510;-2.770;2023-09-19T03:18:36;16.02;;;2.22;;
73571;SDS011;61854;48.510;-2.770;2023-09-19T03:21:02;16.13;;;2.13;;
73571;SDS011;61854;48.510;-2.770;2023-09-19T03:23:28;18.77;;;3.03;;
73571;SDS011;61854;48.510;-2.770;2023-09-19T03:25:56;14.07;;;2.38;;
73571;SDS011;61854;48.510;-2.770;2023-09-19T03:28:23;11.27;;;1.73;;
73571;SDS011;61854;48.510;-2.770;2023-09-19T03:31:02;14.65;;;2.22;;
73571;SDS011;61854;48.510;-2.770;2023-09-19T03:33:29;15.63;;;2.55;;
73571;SDS011;61854;48.510;-2.770;2023-09-19T03:35:58;17.38;;;2.08;;
73571;SDS011;61854;48.510;-2.770;2023-09-19T03:38:26;19.63;;;3.15;;
73571;SDS011;61854;48.510;-2.770;2023-09-19T03:40:53;16.35;;;2.58;;
73571;SDS011;61854;48.510;-2.770;2023-09-19T03:43:19;16.77;;;2.42;;
73571;SDS011;61854;48.510;-2.770;2023-09-19T03:45:45;16.00;;;2.45;;
73571;SDS011;61854;48.510;-2.770;2023-09-19T03:48:11;17.38;;;2.83;;
73571;SDS011;61854;48.510;-2.770;2023-09-19T03:50:38;16.77;;;2.50;;
73571;SDS011;61854;48.510;-2.770;2023-09-19T03:53:04;20.05;;;2.60;;
73571;SDS011;61854;48.510;-2.770;2023-09-19T03:55:32;14.80;;;2.20;;
73571;SDS011;61854;48.510;-2.770;2023-09-19T04:00:29;15.80;;;2.47;;
73571;SDS011;61854;48.510;-2.770;2023-09-19T04:02:54;17.48;;;2.58;;
73571;SDS011;61854;48.510;-2.770;2023-09-19T04:05:22;18.75;;;3.15;;
73571;SDS011;61854;48.510;-2.770;2023-09-19T04:07:48;18.45;;;2.58;;
73571;SDS011;61854;48.510;-2.770;2023-09-19T04:10:15;18.17;;;3.15;;
73571;SDS011;61854;48.510;-2.770;2023-09-19T04:12:40;20.17;;;3.03;;
73571;SDS011;61854;48.510;-2.770;2023-09-19T04:15:15;12.35;;;2.13;;
73571;SDS011;61854;48.510;-2.770;2023-09-19T04:17:41;21.42;;;2.88;;
73571;SDS011;61854;48.510;-2.770;2023-09-19T04:20:07;17.80;;;2.42;;
73571;SDS011;61854;48.510;-2.770;2023-09-19T04:22:33;19.98;;;3.20;;
73571;SDS011;61854;48.510;-2.770;2023-09-19T04:24:59;12.05;;;2.15;;
73571;SDS011;61854;48.510;-2.770;2023-09-19T04:27:24;17.30;;;2.70;;
73571;SDS011;61854;48.510;-2.770;2023-09-19T04:29:50;16.90;;;2.53;;
73571;SDS011;61854;48.510;-2.770;2023-09-19T04:32:18;15.80;;;2.10;;
73571;SDS011;61854;48.510;-2.770;2023-09-19T04:34:43;15.52;;;2.70;;
73571;SDS011;61854;48.510;-2.770;2023-09-19T04:37:09;17.60;;;2.70;;
73571;SDS011;61854;48.510;-2.770;2023-09-19T04:39:36;12.02;;;2.10;;
73571;SDS011;61854;48.510;-2.770;2023-09-19T04:42:01;16.33;;;2.40;;
73571;SDS011;61854;48.510;-2.770;2023-09-19T04:44:28;15.65;;;2.90;;
73571;SDS011;61854;48.510;-2.770;2023-09-19T04:46:54;11.90;;;2.22;;
73571;SDS011;61854;48.510;-2.770;2023-09-19T04:49:19;16.92;;;2.65;;
73571;SDS011;61854;48.510;-2.770;2023-09-19T04:51:45;18.58;;;2.90;;
73571;SDS011;61854;48.510;-2.770;2023-09-19T04:54:11;17.33;;;2.45;;
73571;SDS011;61854;48.510;-2.770;2023-09-19T04:56:38;14.95;;;2.50;;
73571;SDS011;61854;48.510;-2.770;2023-09-19T04:59:05;11.38;;;2.35;;
73571;SDS011;61854;48.510;-2.770;2023-09-19T05:01:31;22.95;;;2.90;;
73571;SDS011;61854;48.510;-2.770;2023-09-19T05:03:57;17.40;;;2.28;;
73571;SDS011;61854;48.510;-2.770;2023-09-19T05:06:23;13.98;;;2.10;;
73571;SDS011;61854;48.510;-2.770;2023-09-19T05:08:48;13.45;;;2.42;;
73571;SDS011;61854;48.510;-2.770;2023-09-19T05:11:17;14.43;;;2.43;;
73571;SDS011;61854;48.510;-2.770;2023-09-19T05:13:43;16.10;;;2.33;;
73571;SDS011;61854;48.510;-2.770;2023-09-19T05:16:09;18.63;;;2.35;;
73571;SDS011;61854;48.510;-2.770;2023-09-19T05:18:37;18.58;;;3.13;;
73571;SDS011;61854;48.510;-2.770;2023-09-19T05:21:03;13.90;;;2.47;;
73571;SDS011;61854;48.510;-2.770;2023-09-19T05:23:29;14.90;;;2.55;;
73571;SDS011;61854;48.510;-2.770;2023-09-19T05:25:55;11.05;;;2.05;;
73571;SDS011;61854;48.510;-2.770;2023-09-19T05:28:22;19.98;;;2.88;;
73571;SDS011;61854;48.510;-2.770;2023-09-19T05:30:48;16.63;;;2.85;;
73571;SDS011;61854;48.510;-2.770;2023-09-19T05:33:14;9.70;;;1.75;;
73571;SDS011;61854;48.510;-2.770;2023-09-19T05:35:39;10.80;;;2.40;;
73571;SDS011;61854;48.510;-2.770;2023-09-19T05:38:07;13.85;;;2.20;;
73571;SDS011;61854;48.510;-2.770;2023-09-19T05:40:37;11.38;;;1.70;;
73571;SDS011;61854;48.510;-2.770;2023-09-19T05:43:05;11.13;;;2.25;;
73571;SDS011;61854;48.510;-2.770;2023-09-19T05:45:31;14.15;;;2.35;;
73571;SDS011;61854;48.510;-2.770;2023-09-19T05:48:05;11.13;;;1.63;;
73571;SDS011;61854;48.510;-2.770;2023-09-19T05:50:40;14.90;;;2.15;;
73571;SDS011;61854;48.510;-2.770;2023-09-19T05:53:06;14.63;;;2.35;;
73571;SDS011;61854;48.510;-2.770;2023-09-19T05:55:32;11.45;;;1.92;;
73571;SDS011;61854;48.510;-2.770;2023-09-19T05:57:58;16.92;;;2.50;;
73571;SDS011;61854;48.510;-2.770;2023-09-19T06:00:24;12.55;;;2.03;;
73571;SDS011;61854;48.510;-2.770;2023-09-19T06:05:18;9.43;;;1.38;;
73571;SDS011;61854;48.510;-2.770;2023-09-19T06:07:45;13.75;;;2.17;;
73571;SDS011;61854;48.510;-2.770;2023-09-19T06:10:12;11.68;;;2.03;;
73571;SDS011;61854;48.510;-2.770;2023-09-19T06:12:41;15.02;;;2.42;;
73571;SDS011;61854;48.510;-2.770;2023-09-19T06:15:11;13.52;;;2.55;;
73571;SDS011;61854;48.510;-2.770;2023-09-19T06:17:46;12.10;;;2.45;;
73571;SDS011;61854;48.510;-2.770;2023-09-19T06:20:13;14.07;;;1.90;;
73571;SDS011;61854;48.510;-2.770;2023-09-19T06:22:40;14.30;;;2.50;;
73571;SDS011;61854;48.510;-2.770;2023-09-19T06:25:07;6.45;;;1.58;;
73571;SDS011;61854;48.510;-2.770;2023-09-19T06:27:36;17.55;;;2.58;;
73571;SDS011;61854;48.510;-2.770;2023-09-19T06:30:02;11.68;;;2.33;;
73571;SDS011;61854;48.510;-2.770;2023-09-19T06:32:28;14.70;;;2.22;;
73571;SDS011;61854;48.510;-2.770;2023-09-19T06:34:53;10.38;;;2.15;;
73571;SDS011;61854;48.510;-2.770;2023-09-19T06:37:20;9.80;;;2.33;;
73571;SDS011;61854;48.510;-2.770;2023-09-19T06:39:47;16.52;;;2.88;;
73571;SDS011;61854;48.510;-2.770;2023-09-19T06:42:15;12.80;;;2.00;;
73571;SDS011;61854;48.510;-2.770;2023-09-19T06:44:42;16.00;;;2.33;;
73571;SDS011;61854;48.510;-2.770;2023-09-19T06:47:08;12.13;;;2.40;;
73571;SDS011;61854;48.510;-2.770;2023-09-19T06:49:35;10.40;;;2.08;;
73571;SDS011;61854;48.510;-2.770;2023-09-19T06:52:01;8.20;;;1.67;;
73571;SDS011;61854;48.510;-2.770;2023-09-19T06:54:28;14.90;;;2.83;;
73571;SDS011;61854;48.510;-2.770;2023-09-19T06:57:00;10.95;;;2.33;;
73571;SDS011;61854;48.510;-2.770;2023-09-19T06:59:25;12.80;;;1.95;;
73571;SDS011;61854;48.510;-2.770;2023-09-19T07:01:51;15.80;;;2.42;;
73571;SDS011;61854;48.510;-2.770;2023-09-19T07:04:17;12.55;;;2.30;;
73571;SDS011;61854;48.510;-2.770;2023-09-19T07:06:44;11.07;;;2.07;;
73571;SDS011;61854;48.510;-2.770;2023-09-19T07:09:19;11.95;;;1.92;;
73571;SDS011;61854;48.510;-2.770;2023-09-19T07:11:45;11.10;;;2.03;;
73571;SDS011;61854;48.510;-2.770;2023-09-19T07:14:13;14.52;;;2.55;;
73571;SDS011;61854;48.510;-2.770;2023-09-19T07:16:38;10.85;;;2.58;;
73571;SDS011;61854;48.510;-2.770;2023-09-19T07:19:05;10.02;;;1.80;;
73571;SDS011;61854;48.510;-2.770;2023-09-19T07:21:31;13.93;;;2.10;;
73571;SDS011;61854;48.510;-2.770;2023-09-19T07:24:00;12.98;;;2.60;;
73571;SDS011;61854;48.510;-2.770;2023-09-19T07:26:27;10.02;;;2.05;;
73571;SDS011;61854;48.510;-2.770;2023-09-19T07:28:53;12.23;;;1.80;;
73571;SDS011;61854;48.510;-2.770;2023-09-19T07:31:19;13.27;;;2.33;;
73571;SDS011;61854;48.510;-2.770;2023-09-19T07:33:47;16.92;;;2.60;;
73571;SDS011;61854;48.510;-2.770;2023-09-19T07:36:13;14.68;;;2.30;;
73571;SDS011;61854;48.510;-2.770;2023-09-19T07:38:42;14.65;;;2.58;;
73571;SDS011;61854;48.510;-2.770;2023-09-19T07:41:08;14.07;;;2.50;;
73571;SDS011;61854;48.510;-2.770;2023-09-19T07:43:34;18.75;;;2.88;;
73571;SDS011;61854;48.510;-2.770;2023-09-19T07:46:03;15.13;;;3.17;;
73571;SDS011;61854;48.510;-2.770;2023-09-19T07:48:34;11.18;;;1.90;;
73571;SDS011;61854;48.510;-2.770;2023-09-19T07:51:06;15.98;;;3.00;;
73571;SDS011;61854;48.510;-2.770;2023-09-19T07:53:33;13.73;;;2.70;;
73571;SDS011;61854;48.510;-2.770;2023-09-19T07:56:06;10.98;;;2.10;;
73571;SDS011;61854;48.510;-2.770;2023-09-19T07:58:33;20.98;;;2.72;;
73571;SDS011;61854;48.510;-2.770;2023-09-19T08:01:03;11.23;;;2.28;;
73571;SDS011;61854;48.510;-2.770;2023-09-19T08:03:30;16.85;;;3.33;;
73571;SDS011;61854;48.510;-2.770;2023-09-19T08:05:56;14.57;;;2.67;;
73571;SDS011;61854;48.510;-2.770;2023-09-19T08:08:25;16.67;;;2.85;;
73571;SDS011;61854;48.510;-2.770;2023-09-19T08:10:55;11.90;;;2.80;;
73571;SDS011;61854;48.510;-2.770;2023-09-19T08:13:24;18.02;;;2.92;;
73571;SDS011;61854;48.510;-2.770;2023-09-19T08:15:51;14.27;;;2.40;;
73571;SDS011;61854;48.510;-2.770;2023-09-19T08:18:18;17.27;;;2.73;;
73571;SDS011;61854;48.510;-2.770;2023-09-19T08:20:49;13.38;;;2.65;;
73571;SDS011;61854;48.510;-2.770;2023-09-19T08:23:17;14.77;;;2.50;;
73571;SDS011;61854;48.510;-2.770;2023-09-19T08:25:45;12.55;;;2.85;;
73571;SDS011;61854;48.510;-2.770;2023-09-19T08:28:13;13.80;;;2.60;;
73571;SDS011;61854;48.510;-2.770;2023-09-19T08:30:44;12.75;;;2.50;;
73571;SDS011;61854;48.510;-2.770;2023-09-19T08:33:12;12.77;;;3.03;;
73571;SDS011;61854;48.510;-2.770;2023-09-19T08:35:40;10.27;;;2.45;;
73571;SDS011;61854;48.510;-2.770;2023-09-19T08:38:06;14.00;;;3.15;;
73571;SDS011;61854;48.510;-2.770;2023-09-19T08:40:32;13.63;;;2.63;;
73571;SDS011;61854;48.510;-2.770;2023-09-19T08:43:04;15.00;;;3.30;;
73571;SDS011;61854;48.510;-2.770;2023-09-19T08:45:32;13.00;;;2.67;;
73571;SDS011;61854;48.510;-2.770;2023-09-19T08:50:52;13.98;;;2.53;;
73571;SDS011;61854;48.510;-2.770;2023-09-19T08:53:27;18.40;;;2.83;;
73571;SDS011;61854;48.510;-2.770;2023-09-19T08:55:57;22.35;;;3.25;;
73571;SDS011;61854;48.510;-2.770;2023-09-19T08:58:27;15.23;;;2.80;;
73571;SDS011;61854;48.510;-2.770;2023-09-19T09:01:00;16.23;;;2.85;;
73571;SDS011;61854;48.510;-2.770;2023-09-19T09:03:27;13.32;;;2.70;;
73571;SDS011;61854;48.510;-2.770;2023-09-19T09:05:59;11.75;;;2.22;;
73571;SDS011;61854;48.510;-2.770;2023-09-19T09:08:24;12.38;;;2.30;;
73571;SDS011;61854;48.510;-2.770;2023-09-19T09:10:51;14.63;;;2.10;;
73571;SDS011;61854;48.510;-2.770;2023-09-19T09:13:17;14.88;;;2.25;;
73571;SDS011;61854;48.510;-2.770;2023-09-19T09:15:43;16.38;;;2.90;;
73571;SDS011;61854;48.510;-2.770;2023-09-19T09:18:10;12.38;;;2.50;;
73571;SDS011;61854;48.510;-2.770;2023-09-19T09:20:36;13.93;;;2.38;;
73571;SDS011;61854;48.510;-2.770;2023-09-19T09:23:01;12.27;;;2.95;;
73571;SDS011;61854;48.510;-2.770;2023-09-19T09:28:34;10.70;;;2.20;;
73571;SDS011;61854;48.510;-2.770;2023-09-19T09:31:07;11.38;;;2.42;;
73571;SDS011;61854;48.510;-2.770;2023-09-19T09:33:52;17.73;;;3.08;;
73571;SDS011;61854;48.510;-2.770;2023-09-19T09:36:38;12.30;;;2.50;;
73571;SDS011;61854;48.510;-2.770;2023-09-19T09:39:08;14.93;;;2.72;;
73571;SDS011;61854;48.510;-2.770;2023-09-19T09:41:41;9.23;;;2.75;;
73571;SDS011;61854;48.510;-2.770;2023-09-19T09:44:14;17.95;;;3.13;;
73571;SDS011;61854;48.510;-2.770;2023-09-19T09:46:43;18.90;;;4.07;;
73571;SDS011;61854;48.510;-2.770;2023-09-19T09:49:18;12.95;;;2.95;;
73571;SDS011;61854;48.510;-2.770;2023-09-19T09:52:01;17.13;;;3.50;;
73571;SDS011;61854;48.510;-2.770;2023-09-19T09:54:32;17.77;;;3.35;;
73571;SDS011;61854;48.510;-2.770;2023-09-19T09:57:02;14.30;;;3.53;;
73571;SDS011;61854;48.510;-2.770;2023-09-19T10:05:11;10.20;;;2.92;;
73571;SDS011;61854;48.510;-2.770;2023-09-19T10:07:38;16.85;;;2.88;;
73571;SDS011;61854;48.510;-2.770;2023-09-19T10:10:07;16.60;;;3.17;;
73571;SDS011;61854;48.510;-2.770;2023-09-19T10:12:47;19.10;;;3.85;;
73571;SDS011;61854;48.510;-2.770;2023-09-19T10:15:14;17.00;;;3.53;;
73571;SDS011;61854;48.510;-2.770;2023-09-19T10:17:44;13.68;;;3.28;;
73571;SDS011;61854;48.510;-2.770;2023-09-19T10:20:17;12.27;;;2.95;;
73571;SDS011;61854;48.510;-2.770;2023-09-19T10:23:04;11.52;;;3.58;;
73571;SDS011;61854;48.510;-2.770;2023-09-19T10:25:35;11.48;;;2.85;;
73571;SDS011;61854;48.510;-2.770;2023-09-19T10:28:06;16.77;;;3.35;;
73571;SDS011;61854;48.510;-2.770;2023-09-19T10:30:38;15.98;;;2.92;;
73571;SDS011;61854;48.510;-2.770;2023-09-19T10:33:10;13.75;;;3.53;;
73571;SDS011;61854;48.510;-2.770;2023-09-19T10:35:44;10.80;;;2.83;;
73571;SDS011;61854;48.510;-2.770;2023-09-19T10:38:12;13.85;;;2.70;;
73571;SDS011;61854;48.510;-2.770;2023-09-19T10:40:40;15.93;;;4.18;;
73571;SDS011;61854;48.510;-2.770;2023-09-19T10:43:13;9.38;;;2.88;;
73571;SDS011;61854;48.510;-2.770;2023-09-19T10:45:45;14.65;;;3.85;;
73571;SDS011;61854;48.510;-2.770;2023-09-19T10:48:15;15.32;;;3.78;;
73571;SDS011;61854;48.510;-2.770;2023-09-19T10:53:14;15.00;;;3.58;;
73571;SDS011;61854;48.510;-2.770;2023-09-19T10:55:42;16.33;;;3.92;;
73571;SDS011;61854;48.510;-2.770;2023-09-19T10:58:26;13.77;;;2.92;;
73571;SDS011;61854;48.510;-2.770;2023-09-19T11:00:54;16.70;;;4.38;;
73571;SDS011;61854;48.510;-2.770;2023-09-19T11:03:22;21.50;;;4.15;;
73571;SDS011;61854;48.510;-2.770;2023-09-19T11:11:42;20.45;;;4.70;;
73571;SDS011;61854;48.510;-2.770;2023-09-19T11:30:46;20.95;;;4.68;;
73571;SDS011;61854;48.510;-2.770;2023-09-19T11:33:23;17.63;;;3.92;;
73571;SDS011;61854;48.510;-2.770;2023-09-19T11:35:59;12.07;;;3.55;;
73571;SDS011;61854;48.510;-2.770;2023-09-19T11:43:50;17.75;;;4.90;;
73571;SDS011;61854;48.510;-2.770;2023-09-19T11:46:25;13.57;;;3.47;;
73571;SDS011;61854;48.510;-2.770;2023-09-19T11:48:53;14.25;;;4.40;;
73571;SDS011;61854;48.510;-2.770;2023-09-19T11:53:52;13.68;;;3.75;;
73571;SDS011;61854;48.510;-2.770;2023-09-19T11:56:22;11.32;;;3.40;;
73571;SDS011;61854;48.510;-2.770;2023-09-19T11:58:51;17.50;;;3.90;;
73571;SDS011;61854;48.510;-2.770;2023-09-19T12:01:24;12.57;;;3.75;;
73571;SDS011;61854;48.510;-2.770;2023-09-19T12:03:58;15.63;;;4.20;;
73571;SDS011;61854;48.510;-2.770;2023-09-19T12:06:25;21.02;;;4.45;;
73571;SDS011;61854;48.510;-2.770;2023-09-19T12:08:52;9.20;;;2.95;;
73571;SDS011;61854;48.510;-2.770;2023-09-19T12:11:19;21.98;;;4.07;;
73571;SDS011;61854;48.510;-2.770;2023-09-19T12:13:48;19.67;;;4.47;;
73571;SDS011;61854;48.510;-2.770;2023-09-19T12:16:18;14.95;;;4.32;;
73571;SDS011;61854;48.510;-2.770;2023-09-19T12:18:48;15.55;;;4.25;;
73571;SDS011;61854;48.510;-2.770;2023-09-19T12:21:21;10.40;;;3.00;;
73571;SDS011;61854;48.510;-2.770;2023-09-19T12:24:03;19.88;;;4.20;;
73571;SDS011;61854;48.510;-2.770;2023-09-19T12:26:30;13.32;;;3.28;;
73571;SDS011;61854;48.510;-2.770;2023-09-19T12:29:02;18.20;;;3.85;;
73571;SDS011;61854;48.510;-2.770;2023-09-19T12:31:30;16.03;;;4.50;;
73571;SDS011;61854;48.510;-2.770;2023-09-19T12:34:01;23.23;;;4.82;;
73571;SDS011;61854;48.510;-2.770;2023-09-19T12:36:27;18.80;;;4.10;;
73571;SDS011;61854;48.510;-2.770;2023-09-19T12:38:56;13.65;;;4.20;;
73571;SDS011;61854;48.510;-2.770;2023-09-19T12:41:24;17.50;;;4.15;;
73571;SDS011;61854;48.510;-2.770;2023-09-19T12:43:51;21.30;;;4.40;;
73571;SDS011;61854;48.510;-2.770;2023-09-19T12:48:46;15.20;;;4.40;;
73571;SDS011;61854;48.510;-2.770;2023-09-19T12:51:13;22.38;;;5.18;;
73571;SDS011;61854;48.510;-2.770;2023-09-19T12:53:43;12.77;;;3.92;;
73571;SDS011;61854;48.510;-2.770;2023-09-19T12:56:12;17.15;;;4.55;;
73571;SDS011;61854;48.510;-2.770;2023-09-19T13:01:21;15.98;;;3.97;;
73571;SDS011;61854;48.510;-2.770;2023-09-19T13:06:38;11.95;;;3.10;;
73571;SDS011;61854;48.510;-2.770;2023-09-19T13:09:11;18.23;;;3.87;;
73571;SDS011;61854;48.510;-2.770;2023-09-19T13:11:37;12.88;;;3.55;;
73571;SDS011;61854;48.510;-2.770;2023-09-19T13:14:16;14.35;;;4.18;;
73571;SDS011;61854;48.510;-2.770;2023-09-19T13:25:20;20.50;;;3.97;;
73571;SDS011;61854;48.510;-2.770;2023-09-19T13:27:50;15.87;;;4.47;;
73571;SDS011;61854;48.510;-2.770;2023-09-19T13:30:24;13.27;;;3.65;;
73571;SDS011;61854;48.510;-2.770;2023-09-19T13:33:05;15.20;;;3.75;;
73571;SDS011;61854;48.510;-2.770;2023-09-19T13:35:32;20.13;;;4.53;;
73571;SDS011;61854;48.510;-2.770;2023-09-19T13:37:58;17.33;;;4.03;;
73571;SDS011;61854;48.510;-2.770;2023-09-19T13:40:24;14.38;;;4.28;;
73571;SDS011;61854;48.510;-2.770;2023-09-19T13:43:00;19.58;;;4.68;;
73571;SDS011;61854;48.510;-2.770;2023-09-19T13:45:26;18.88;;;4.80;;
73571;SDS011;61854;48.510;-2.770;2023-09-19T13:47:55;16.58;;;4.40;;
73571;SDS011;61854;48.510;-2.770;2023-09-19T13:50:21;18.15;;;4.80;;
73571;SDS011;61854;48.510;-2.770;2023-09-19T13:52:49;18.05;;;5.18;;
73571;SDS011;61854;48.510;-2.770;2023-09-19T13:55:16;19.45;;;5.03;;
73571;SDS011;61854;48.510;-2.770;2023-09-19T13:57:46;14.90;;;4.63;;
73571;SDS011;61854;48.510;-2.770;2023-09-19T14:00:15;19.80;;;5.00;;
73571;SDS011;61854;48.510;-2.770;2023-09-19T14:02:41;14.85;;;4.60;;
73571;SDS011;61854;48.510;-2.770;2023-09-19T14:05:11;20.38;;;5.32;;
73571;SDS011;61854;48.510;-2.770;2023-09-19T14:07:41;23.17;;;5.57;;
73571;SDS011;61854;48.510;-2.770;2023-09-19T14:10:08;9.88;;;3.13;;
73571;SDS011;61854;48.510;-2.770;2023-09-19T14:12:35;14.63;;;3.97;;
73571;SDS011;61854;48.510;-2.770;2023-09-19T14:15:02;14.07;;;4.57;;
73571;SDS011;61854;48.510;-2.770;2023-09-19T14:17:32;18.48;;;4.88;;
73571;SDS011;61854;48.510;-2.770;2023-09-19T14:19:58;17.52;;;4.93;;
73571;SDS011;61854;48.510;-2.770;2023-09-19T14:22:23;16.50;;;4.30;;
73571;SDS011;61854;48.510;-2.770;2023-09-19T14:24:49;16.33;;;5.13;;
73571;SDS011;61854;48.510;-2.770;2023-09-19T14:27:15;23.20;;;5.35;;
73571;SDS011;61854;48.510;-2.770;2023-09-19T14:29:41;24.10;;;5.32;;
73571;SDS011;61854;48.510;-2.770;2023-09-19T14:32:07;21.55;;;5.65;;
73571;SDS011;61854;48.510;-2.770;2023-09-19T14:34:32;17.55;;;4.32;;
73571;SDS011;61854;48.510;-2.770;2023-09-19T14:36:58;16.40;;;3.95;;
73571;SDS011;61854;48.510;-2.770;2023-09-19T14:39:24;19.80;;;4.97;;
73571;SDS011;61854;48.510;-2.770;2023-09-19T14:41:50;17.95;;;4.43;;
73571;SDS011;61854;48.510;-2.770;2023-09-19T14:44:15;20.73;;;5.68;;
73571;SDS011;61854;48.510;-2.770;2023-09-19T14:46:42;18.25;;;5.13;;
73571;SDS011;61854;48.510;-2.770;2023-09-19T14:49:10;18.23;;;4.70;;
73571;SDS011;61854;48.510;-2.770;2023-09-19T14:51:37;19.35;;;4.90;;
73571;SDS011;61854;48.510;-2.770;2023-09-19T14:54:05;24.80;;;5.95;;
73571;SDS011;61854;48.510;-2.770;2023-09-19T14:56:32;22.60;;;5.57;;
73571;SDS011;61854;48.510;-2.770;2023-09-19T14:58:58;12.32;;;3.97;;
73571;SDS011;61854;48.510;-2.770;2023-09-19T15:01:23;20.15;;;4.97;;
73571;SDS011;61854;48.510;-2.770;2023-09-19T15:03:49;22.05;;;5.07;;
73571;SDS011;61854;48.510;-2.770;2023-09-19T15:06:15;18.77;;;4.88;;
73571;SDS011;61854;48.510;-2.770;2023-09-19T15:08:42;22.50;;;4.50;;
73571;SDS011;61854;48.510;-2.770;2023-09-19T15:11:17;18.48;;;5.15;;
73571;SDS011;61854;48.510;-2.770;2023-09-19T15:13:44;24.13;;;5.10;;
73571;SDS011;61854;48.510;-2.770;2023-09-19T15:16:10;16.88;;;4.15;;
73571;SDS011;61854;48.510;-2.770;2023-09-19T15:18:38;16.90;;;4.68;;
73571;SDS011;61854;48.510;-2.770;2023-09-19T15:21:07;21.80;;;5.65;;
73571;SDS011;61854;48.510;-2.770;2023-09-19T15:26:04;20.48;;;5.47;;
73571;SDS011;61854;48.510;-2.770;2023-09-19T15:28:32;14.95;;;4.47;;
73571;SDS011;61854;48.510;-2.770;2023-09-19T15:31:03;14.37;;;3.40;;
73571;SDS011;61854;48.510;-2.770;2023-09-19T15:33:31;10.35;;;2.95;;
73571;SDS011;61854;48.510;-2.770;2023-09-19T15:36:07;19.30;;;3.63;;
73571;SDS011;61854;48.510;-2.770;2023-09-19T15:41:31;10.82;;;3.25;;
73571;SDS011;61854;48.510;-2.770;2023-09-19T15:43:59;12.00;;;4.15;;
73571;SDS011;61854;48.510;-2.770;2023-09-19T15:46:33;13.07;;;3.93;;
73571;SDS011;61854;48.510;-2.770;2023-09-19T15:49:00;11.27;;;3.22;;
73571;SDS011;61854;48.510;-2.770;2023-09-19T15:51:26;20.05;;;4.32;;
73571;SDS011;61854;48.510;-2.770;2023-09-19T15:53:52;19.52;;;4.13;;
73571;SDS011;61854;48.510;-2.770;2023-09-19T15:58:47;13.18;;;3.58;;
73571;SDS011;61854;48.510;-2.770;2023-09-19T16:01:14;14.97;;;4.27;;